createdAt,value
2023-01-13T00:00:28.077Z,97262.91
2023-01-13T00:04:29.647Z,97260.97
2023-01-13T00:08:31.588Z,97243.56
2023-01-13T00:12:33.136Z,97244.97
2023-01-13T00:16:36.070Z,97237.47
2023-01-13T00:20:37.590Z,97244.97
2023-01-13T00:24:39.137Z,97239.44
2023-01-13T00:28:40.678Z,97236.91
2023-01-13T00:32:43.587Z,97231.53
2023-01-13T00:36:45.141Z,97226.22
2023-01-13T00:40:54.842Z,97232.88
2023-01-13T00:44:56.412Z,97222.94
2023-01-13T00:48:59.317Z,97210.19
2023-01-13T00:53:01.013Z,97207.44
2023-01-13T00:57:02.629Z,97213.28
2023-01-13T01:01:05.459Z,97193.16
2023-01-13T01:05:09.043Z,97202.00
2023-01-13T01:09:12.915Z,97201.88
2023-01-13T01:13:14.486Z,97196.31
2023-01-13T01:17:16.016Z,97184.81
2023-01-13T01:21:19.463Z,97190.59
2023-01-13T01:25:21.030Z,97185.09
2023-01-13T01:29:22.562Z,97180.94
2023-01-13T01:33:24.386Z,97188.59
2023-01-13T01:37:27.309Z,97164.88
2023-01-13T01:41:30.297Z,97168.38
2023-01-13T01:45:32.031Z,97161.91
2023-01-13T01:49:35.164Z,97162.81
2023-01-13T01:53:39.182Z,97153.44
2023-01-13T01:57:43.095Z,97159.94
2023-01-13T02:01:45.360Z,97151.06
2023-01-13T02:05:46.994Z,97155.88
2023-01-13T02:09:50.035Z,97152.34
2023-01-13T02:13:51.686Z,97143.78
2023-01-13T02:18:00.343Z,97141.38
2023-01-13T02:22:13.792Z,97139.88
2023-01-13T02:26:32.578Z,97132.31
2023-01-13T02:30:40.859Z,97130.69
2023-01-13T02:34:46.742Z,97117.28
2023-01-13T02:38:50.825Z,97123.72
2023-01-13T02:42:55.826Z,97121.56
2023-01-13T02:47:02.161Z,97126.16
2023-01-13T02:51:05.818Z,97119.31
2023-01-13T02:55:10.581Z,97112.47
2023-01-13T02:59:12.577Z,97103.78
2023-01-13T03:03:15.332Z,97107.28
2023-01-13T03:07:26.261Z,97109.97
2023-01-13T03:11:33.311Z,97109.75
2023-01-13T03:15:41.863Z,97118.66
2023-01-13T03:19:49.978Z,97108.47
2023-01-13T03:23:53.732Z,97099.56
2023-01-13T03:27:57.517Z,97105.13
2023-01-13T03:32:01.458Z,97094.53
2023-01-13T03:36:07.999Z,97097.88
2023-01-13T03:40:12.275Z,97088.88
2023-01-13T03:44:17.140Z,97083.41
2023-01-13T03:48:20.214Z,97088.34
2023-01-13T03:52:26.216Z,97090.19
2023-01-13T03:56:29.875Z,97076.50
2023-01-13T04:00:32.368Z,97083.06
2023-01-13T04:04:35.620Z,97086.91
2023-01-13T04:08:40.081Z,97089.75
2023-01-13T04:12:44.914Z,97090.78
2023-01-13T04:16:47.481Z,97092.34
2023-01-13T04:20:50.198Z,97086.91
2023-01-13T04:24:52.922Z,97085.00
2023-01-13T04:28:54.295Z,97075.69
2023-01-13T04:32:55.741Z,97081.13
2023-01-13T04:36:57.138Z,97069.13
2023-01-13T04:40:59.887Z,97079.94
2023-01-13T04:45:01.280Z,97075.97
2023-01-13T04:49:02.746Z,97075.50
2023-01-13T04:53:04.130Z,97070.31
2023-01-13T04:57:06.950Z,97058.91
2023-01-13T05:01:08.534Z,97066.31
2023-01-13T05:05:10.028Z,97071.06
2023-01-13T05:09:11.508Z,97063.31
2023-01-13T05:13:14.272Z,97066.44
2023-01-13T05:17:18.724Z,97064.94
2023-01-13T05:21:20.114Z,97073.00
2023-01-13T05:25:21.620Z,97068.91
2023-01-13T05:29:24.403Z,97064.34
2023-01-13T05:33:25.813Z,97066.44
2023-01-13T05:37:27.246Z,97069.94
2023-01-13T05:41:28.606Z,97073.50
2023-01-13T05:45:31.706Z,97074.56
2023-01-13T05:49:33.205Z,97070.53
2023-01-13T05:53:34.817Z,97071.59
2023-01-13T05:57:36.280Z,97058.69
2023-01-13T06:01:39.034Z,97048.00
2023-01-13T06:05:40.425Z,97060.63
2023-01-13T06:09:41.866Z,97049.72
2023-01-13T06:13:43.259Z,97057.28
2023-01-13T06:17:46.088Z,97053.44
2023-01-13T06:21:47.462Z,97048.81
2023-01-13T06:25:52.730Z,97049.53
2023-01-13T06:29:54.107Z,97049.25
2023-01-13T06:33:59.388Z,97057.06
2023-01-13T06:38:02.814Z,97050.28
2023-01-13T06:42:04.400Z,97053.91
2023-01-13T06:46:06.016Z,97060.88
2023-01-13T06:50:09.667Z,97055.53
2023-01-13T06:54:11.074Z,97062.47
2023-01-13T06:58:12.532Z,97060.22
2023-01-13T07:02:14.061Z,97052.91
2023-01-13T07:06:16.857Z,97056.63
2023-01-13T07:10:18.310Z,97056.13
2023-01-13T07:14:19.730Z,97057.00
2023-01-13T07:18:21.143Z,97061.88
2023-01-13T07:22:23.914Z,97061.97
2023-01-13T07:26:25.302Z,97061.63
2023-01-13T07:30:26.776Z,97075.63
2023-01-13T07:34:28.160Z,97077.84
2023-01-13T07:38:31.477Z,97067.47
2023-01-13T07:42:32.841Z,97069.50
2023-01-13T07:46:34.201Z,97071.75
2023-01-13T07:50:35.602Z,97065.34
2023-01-13T07:54:40.928Z,97055.44
2023-01-13T07:58:42.564Z,97066.06
2023-01-13T08:02:43.989Z,97066.69
2023-01-13T08:06:45.400Z,97065.63
2023-01-13T08:10:48.143Z,97070.53
2023-01-13T08:14:49.525Z,97077.09
2023-01-13T08:18:50.926Z,97079.25
2023-01-13T08:22:55.841Z,97090.06
2023-01-13T08:26:58.590Z,97093.53
2023-01-13T08:31:00.671Z,97095.59
2023-01-13T08:35:02.114Z,97093.88
2023-01-13T08:39:03.571Z,97088.56
2023-01-13T08:43:06.320Z,97091.31
2023-01-13T08:47:07.776Z,97083.44
2023-01-13T08:51:09.703Z,97078.03
2023-01-13T08:55:11.383Z,97070.06
2023-01-13T08:59:14.609Z,97075.69
2023-01-13T09:03:15.989Z,97081.19
2023-01-13T09:07:17.774Z,97082.72
2023-01-13T09:11:20.599Z,97087.63
2023-01-13T09:15:23.492Z,97092.84
2023-01-13T09:19:25.201Z,97094.56
2023-01-13T09:23:26.609Z,97088.66
2023-01-13T09:27:27.987Z,97088.66
2023-01-13T09:31:30.804Z,97091.81
2023-01-13T09:35:32.224Z,97083.53
2023-01-13T09:39:33.985Z,97087.22
2023-01-13T09:43:38.176Z,97099.47
2023-01-13T09:47:44.559Z,97103.97
2023-01-13T09:51:49.156Z,97094.28
2023-01-13T09:55:50.559Z,97093.84
2023-01-13T09:59:52.038Z,97089.22
2023-01-13T10:03:54.793Z,97082.09
2023-01-13T10:07:58.710Z,97086.47
2023-01-13T10:12:01.329Z,97080.31
2023-01-13T10:16:08.049Z,97066.50
2023-01-13T10:20:17.010Z,97047.47
2023-01-13T10:24:22.918Z,97053.81
2023-01-13T10:28:24.323Z,97046.16
2023-01-13T10:32:25.711Z,97036.03
2023-01-13T10:36:28.448Z,97047.03
2023-01-13T10:40:29.847Z,97043.00
2023-01-13T10:44:31.230Z,97059.84
2023-01-13T10:48:37.455Z,97045.63
2023-01-13T10:52:41.403Z,97029.84
2023-01-13T10:56:43.706Z,97029.50
2023-01-13T11:00:45.254Z,97030.03
2023-01-13T11:04:58.141Z,97025.81
2023-01-13T11:09:00.959Z,97020.22
2023-01-13T11:13:05.310Z,97014.06
2023-01-13T11:17:14.663Z,97017.47
2023-01-13T11:21:21.224Z,97032.66
2023-01-13T11:25:26.373Z,97042.78
2023-01-13T11:29:30.119Z,97042.50
2023-01-13T11:33:37.942Z,97045.91
2023-01-13T11:37:41.865Z,97056.41
2023-01-13T11:41:46.640Z,97066.94
2023-01-13T11:45:50.625Z,97090.97
2023-01-13T11:49:52.207Z,97109.81
2023-01-13T11:54:04.283Z,97110.50
2023-01-13T11:58:13.871Z,97115.91
2023-01-13T12:02:21.932Z,97109.75
2023-01-13T12:06:29.292Z,97090.66
2023-01-13T12:10:41.267Z,97092.31
2023-01-13T12:14:51.307Z,97089.84
2023-01-13T12:19:00.822Z,97073.72
2023-01-13T12:23:03.915Z,97080.34
2023-01-13T12:27:10.623Z,97072.28
2023-01-13T12:31:13.676Z,97069.34
2023-01-13T12:35:23.038Z,97064.66
2023-01-13T12:39:28.797Z,97070.97
2023-01-13T12:43:31.236Z,97091.09
2023-01-13T12:47:35.290Z,97093.75
2023-01-13T12:51:37.811Z,97102.03
2023-01-13T12:55:39.179Z,97101.53
2023-01-13T12:59:40.629Z,97091.31
2023-01-13T13:04:03.382Z,97082.63
2023-01-13T13:08:07.733Z,97076.06
2023-01-13T13:12:24.001Z,97075.75
2023-01-13T13:16:35.708Z,97074.31
2023-01-13T13:20:55.512Z,97085.13
2023-01-13T13:25:11.771Z,97100.53
2023-01-13T13:29:36.928Z,97105.44
2023-01-13T13:33:47.877Z,97099.00
2023-01-13T13:37:55.513Z,97097.25
2023-01-13T13:42:02.405Z,97096.28
2023-01-13T13:46:16.637Z,97104.25
2023-01-13T13:50:19.428Z,97110.00
2023-01-13T13:54:22.506Z,97118.19
2023-01-13T13:58:24.312Z,97117.16
2023-01-13T14:02:28.206Z,97131.03
2023-01-13T14:06:29.594Z,97121.81
2023-01-13T14:10:33.664Z,97117.84
2023-01-13T14:14:35.116Z,97104.84
2023-01-13T14:18:42.509Z,97129.56
2023-01-13T14:22:46.025Z,97155.97
2023-01-13T14:26:49.133Z,97153.41
2023-01-13T14:30:51.213Z,97150.91
2023-01-13T14:34:52.710Z,97159.81
2023-01-13T14:39:08.948Z,97154.19
2023-01-13T14:43:12.982Z,97164.81
2023-01-13T14:47:19.430Z,97179.25
2023-01-13T14:51:22.622Z,97185.44
2023-01-13T14:55:27.895Z,97199.34
2023-01-13T14:59:41.091Z,97210.44
2023-01-13T15:03:42.645Z,97214.47
2023-01-13T15:07:48.660Z,97220.66
2023-01-13T15:11:50.034Z,97234.69
2023-01-13T15:15:53.727Z,97245.56
2023-01-13T15:19:55.163Z,97228.00
2023-01-13T15:23:56.505Z,97234.38
2023-01-13T15:27:57.939Z,97236.97
2023-01-13T15:32:00.652Z,97246.94
2023-01-13T15:36:02.046Z,97247.97
2023-01-13T15:40:03.694Z,97251.00
2023-01-13T15:44:05.175Z,97257.13
2023-01-13T15:48:07.899Z,97277.53
2023-01-13T15:52:16.887Z,97284.13
2023-01-13T15:56:22.090Z,97294.72
2023-01-13T16:00:23.601Z,97307.75
2023-01-13T16:04:28.167Z,97321.63
2023-01-13T16:08:29.544Z,97326.75
2023-01-13T16:12:30.992Z,97348.16
2023-01-13T16:16:32.521Z,97339.41
2023-01-13T16:20:35.329Z,97349.88
2023-01-13T16:24:36.742Z,97360.50
2023-01-13T16:28:38.120Z,97382.06
2023-01-13T16:32:39.516Z,97381.09
2023-01-13T16:36:42.263Z,97380.56
2023-01-13T16:40:43.951Z,97399.31
2023-01-13T16:44:45.305Z,97401.50
2023-01-13T16:48:46.804Z,97393.53
2023-01-13T16:52:49.565Z,97393.84
2023-01-13T16:56:51.189Z,97395.47
2023-01-13T17:00:52.638Z,97406.69
2023-01-13T17:04:54.000Z,97406.16
2023-01-13T17:09:02.605Z,97413.03
2023-01-13T17:13:14.720Z,97433.72
2023-01-13T17:17:20.356Z,97439.72
2023-01-13T17:21:21.761Z,97447.69
2023-01-13T17:25:24.551Z,97452.66
2023-01-13T17:29:25.955Z,97464.97
2023-01-13T17:33:27.341Z,97464.44
2023-01-13T17:37:28.745Z,97477.06
2023-01-13T17:41:31.524Z,97479.78
2023-01-13T17:45:32.923Z,97481.16
2023-01-13T17:49:34.375Z,97473.22
2023-01-13T17:53:35.767Z,97472.41
2023-01-13T17:57:38.529Z,97481.47
2023-01-13T18:01:40.436Z,97489.72
2023-01-13T18:05:41.998Z,97483.66
2023-01-13T18:09:43.437Z,97485.38
2023-01-13T18:13:46.298Z,97489.19
2023-01-13T18:17:47.722Z,97493.53
2023-01-13T18:21:49.124Z,97492.97
2023-01-13T18:25:50.491Z,97504.03
2023-01-13T18:29:54.229Z,97495.22
2023-01-13T18:33:55.742Z,97513.72
2023-01-13T18:37:57.333Z,97517.09
2023-01-13T18:41:58.710Z,97514.69
2023-01-13T18:46:01.504Z,97518.56
2023-01-13T18:50:02.949Z,97520.50
2023-01-13T18:54:04.443Z,97518.56
2023-01-13T18:58:05.845Z,97525.72
2023-01-13T19:02:13.774Z,97515.56
2023-01-13T19:06:15.176Z,97516.16
2023-01-13T19:10:17.050Z,97509.00
2023-01-13T19:14:19.125Z,97525.22
2023-01-13T19:18:22.063Z,97535.94
2023-01-13T19:22:24.937Z,97547.41
2023-01-13T19:26:26.309Z,97548.81
2023-01-13T19:30:27.757Z,97545.78
2023-01-13T19:34:30.492Z,97550.69
2023-01-13T19:38:32.113Z,97561.88
2023-01-13T19:42:33.485Z,97552.31
2023-01-13T19:46:34.912Z,97572.34
2023-01-13T19:50:38.324Z,97568.22
2023-01-13T19:54:39.710Z,97571.22
2023-01-13T19:58:41.114Z,97587.94
2023-01-13T20:02:42.525Z,97593.19
2023-01-13T20:06:45.281Z,97589.66
2023-01-13T20:10:47.748Z,97603.69
2023-01-13T20:14:49.144Z,97592.41
2023-01-13T20:18:50.825Z,97599.81
2023-01-13T20:22:53.571Z,97615.19
2023-01-13T20:26:55.263Z,97626.16
2023-01-13T20:30:56.620Z,97631.09
2023-01-13T20:34:57.980Z,97631.13
2023-01-13T20:39:01.542Z,97629.19
2023-01-13T20:43:02.912Z,97632.19
2023-01-13T20:47:04.382Z,97649.19
2023-01-13T20:51:05.824Z,97654.69
2023-01-13T20:55:09.309Z,97662.94
2023-01-13T20:59:11.115Z,97671.19
2023-01-13T21:03:13.591Z,97665.47
2023-01-13T21:07:16.394Z,97667.91
2023-01-13T21:11:19.137Z,97670.38
2023-01-13T21:15:20.630Z,97672.56
2023-01-13T21:19:22.017Z,97668.19
2023-01-13T21:23:23.392Z,97673.94
2023-01-13T21:27:26.127Z,97672.00
2023-01-13T21:31:27.873Z,97675.56
2023-01-13T21:35:29.324Z,97672.56
2023-01-13T21:39:30.676Z,97675.81
2023-01-13T21:43:33.763Z,97667.28
2023-01-13T21:47:35.128Z,97666.16
2023-01-13T21:51:36.581Z,97670.59
2023-01-13T21:55:37.961Z,97676.63
2023-01-13T21:59:40.668Z,97688.09
2023-01-13T22:03:42.072Z,97699.03
2023-01-13T22:07:43.431Z,97696.88
2023-01-13T22:11:44.842Z,97700.97
2023-01-13T22:15:47.606Z,97713.84
2023-01-13T22:19:49.511Z,97719.41
2023-01-13T22:23:50.923Z,97714.72
2023-01-13T22:27:52.351Z,97707.06
2023-01-13T22:31:55.158Z,97722.41
2023-01-13T22:35:56.561Z,97725.69
2023-01-13T22:39:57.921Z,97723.84
2023-01-13T22:43:59.284Z,97716.13
2023-01-13T22:48:02.050Z,97716.09
2023-01-13T22:52:03.616Z,97719.91
2023-01-13T22:56:05.179Z,97729.19
2023-01-13T23:00:07.157Z,97730.84
2023-01-13T23:04:11.214Z,97739.91
2023-01-13T23:08:12.723Z,97741.03
2023-01-13T23:12:14.130Z,97743.47
2023-01-13T23:16:16.334Z,97748.97
2023-01-13T23:20:19.079Z,97754.16
2023-01-13T23:24:20.448Z,97755.03
2023-01-13T23:28:22.158Z,97756.38
2023-01-13T23:32:23.546Z,97755.31
2023-01-13T23:36:26.785Z,97755.53
2023-01-13T23:40:28.142Z,97758.28
2023-01-13T23:44:29.588Z,97767.91
2023-01-13T23:48:31.265Z,97779.16
2023-01-13T23:52:34.028Z,97783.00
2023-01-13T23:56:35.426Z,97782.50
